Airport View

Enter AWOS ICAO identifier for current METAR.

ex. KFNL

KABQ 261152Z 11009KT 10SM BKN210 17/M06 A3014 RMK AO2 SLP121 T01671061 10256 20167 53014

26 Jun 2019 12:03

Phone: 505-242-4044

Other Area AWOS: KAEG - KE80 - K0E0 - KSAF

TAF KABQ 261123Z 2612/2712 VRB06KT P6SM SCT150 BKN250 FM261700 17014G20KT P6SM FEW100 SCT250 FM262100 20012G18KT P6SM VCSH SCT100 FM270200 17012KT P6SM VCSH BKN250 FM270600 16008KT P6SM SCT120